sensor_id;sensor_type;location;lat;lon;timestamp;temperature;humidity
14798;DHT22;7490;63.708;20.368;2023-04-25T00:00:19;4.30;67.40
14798;DHT22;7490;63.708;20.368;2023-04-25T00:02:45;4.30;67.50
14798;DHT22;7490;63.708;20.368;2023-04-25T00:05:12;4.40;68.30
14798;DHT22;7490;63.708;20.368;2023-04-25T00:07:38;4.30;67.50
14798;DHT22;7490;63.708;20.368;2023-04-25T00:10:04;4.30;67.70
14798;DHT22;7490;63.708;20.368;2023-04-25T00:12:30;4.30;67.70
14798;DHT22;7490;63.708;20.368;2023-04-25T00:14:56;4.30;67.90
14798;DHT22;7490;63.708;20.368;2023-04-25T00:17:25;4.50;68.90
14798;DHT22;7490;63.708;20.368;2023-04-25T00:19:52;4.30;68.80
14798;DHT22;7490;63.708;20.368;2023-04-25T00:22:18;4.40;68.10
14798;DHT22;7490;63.708;20.368;2023-04-25T00:24:43;4.40;68.10
14798;DHT22;7490;63.708;20.368;2023-04-25T00:27:09;4.60;68.20
14798;DHT22;7490;63.708;20.368;2023-04-25T00:29:35;4.40;68.10
14798;DHT22;7490;63.708;20.368;2023-04-25T00:32:01;4.40;68.10
14798;DHT22;7490;63.708;20.368;2023-04-25T00:34:26;4.40;68.10
14798;DHT22;7490;63.708;20.368;2023-04-25T00:36:52;4.50;68.20
14798;DHT22;7490;63.708;20.368;2023-04-25T00:39:18;4.50;68.10
14798;DHT22;7490;63.708;20.368;2023-04-25T00:41:45;4.50;68.10
14798;DHT22;7490;63.708;20.368;2023-04-25T00:44:11;4.60;68.20
14798;DHT22;7490;63.708;20.368;2023-04-25T00:46:39;4.40;68.10
14798;DHT22;7490;63.708;20.368;2023-04-25T00:49:05;4.60;68.30
14798;DHT22;7490;63.708;20.368;2023-04-25T00:51:31;4.40;68.30
14798;DHT22;7490;63.708;20.368;2023-04-25T00:53:58;4.40;68.40
14798;DHT22;7490;63.708;20.368;2023-04-25T00:56:24;4.60;68.60
14798;DHT22;7490;63.708;20.368;2023-04-25T00:58:53;4.50;68.60
14798;DHT22;7490;63.708;20.368;2023-04-25T01:01:22;4.40;68.70
14798;DHT22;7490;63.708;20.368;2023-04-25T01:03:49;4.40;68.70
14798;DHT22;7490;63.708;20.368;2023-04-25T01:06:16;4.60;68.80
14798;DHT22;7490;63.708;20.368;2023-04-25T01:08:42;4.40;68.80
14798;DHT22;7490;63.708;20.368;2023-04-25T01:11:08;4.40;68.80
14798;DHT22;7490;63.708;20.368;2023-04-25T01:13:34;4.30;69.70
14798;DHT22;7490;63.708;20.368;2023-04-25T01:16:00;4.30;69.00
14798;DHT22;7490;63.708;20.368;2023-04-25T01:18:27;4.40;69.20
14798;DHT22;7490;63.708;20.368;2023-04-25T01:20:53;4.40;69.20
14798;DHT22;7490;63.708;20.368;2023-04-25T01:23:20;4.40;69.30
14798;DHT22;7490;63.708;20.368;2023-04-25T01:25:46;4.40;69.30
14798;DHT22;7490;63.708;20.368;2023-04-25T01:28:13;4.40;69.50
14798;DHT22;7490;63.708;20.368;2023-04-25T01:30:39;4.40;69.60
14798;DHT22;7490;63.708;20.368;2023-04-25T01:33:05;4.30;69.70
14798;DHT22;7490;63.708;20.368;2023-04-25T01:35:31;4.30;70.10
14798;DHT22;7490;63.708;20.368;2023-04-25T01:37:57;4.60;70.40
14798;DHT22;7490;63.708;20.368;2023-04-25T01:40:24;4.50;70.50
14798;DHT22;7490;63.708;20.368;2023-04-25T01:42:50;4.40;70.50
14798;DHT22;7490;63.708;20.368;2023-04-25T01:45:17;4.30;70.60
14798;DHT22;7490;63.708;20.368;2023-04-25T01:47:43;4.40;70.60
14798;DHT22;7490;63.708;20.368;2023-04-25T01:50:12;4.40;70.80
14798;DHT22;7490;63.708;20.368;2023-04-25T01:52:38;4.40;70.70
14798;DHT22;7490;63.708;20.368;2023-04-25T01:55:05;4.40;70.80
14798;DHT22;7490;63.708;20.368;2023-04-25T01:57:31;4.40;70.90
14798;DHT22;7490;63.708;20.368;2023-04-25T02:00:01;4.40;70.90
14798;DHT22;7490;63.708;20.368;2023-04-25T02:02:28;4.40;71.00
14798;DHT22;7490;63.708;20.368;2023-04-25T02:04:53;4.40;70.90
14798;DHT22;7490;63.708;20.368;2023-04-25T02:07:22;4.40;71.00
14798;DHT22;7490;63.708;20.368;2023-04-25T02:09:48;4.40;71.00
14798;DHT22;7490;63.708;20.368;2023-04-25T02:12:14;4.40;71.30
14798;DHT22;7490;63.708;20.368;2023-04-25T02:14:39;4.40;71.40
14798;DHT22;7490;63.708;20.368;2023-04-25T02:17:05;4.40;71.40
14798;DHT22;7490;63.708;20.368;2023-04-25T02:19:31;4.40;71.50
14798;DHT22;7490;63.708;20.368;2023-04-25T02:21:57;4.40;71.60
14798;DHT22;7490;63.708;20.368;2023-04-25T02:24:23;4.40;71.70
14798;DHT22;7490;63.708;20.368;2023-04-25T02:26:49;4.40;71.70
14798;DHT22;7490;63.708;20.368;2023-04-25T02:29:15;4.40;71.70
14798;DHT22;7490;63.708;20.368;2023-04-25T02:31:41;4.70;72.10
14798;DHT22;7490;63.708;20.368;2023-04-25T02:34:06;4.40;71.90
14798;DHT22;7490;63.708;20.368;2023-04-25T02:36:32;4.40;72.00
14798;DHT22;7490;63.708;20.368;2023-04-25T02:39:00;4.40;72.10
14798;DHT22;7490;63.708;20.368;2023-04-25T02:41:26;4.40;72.20
14798;DHT22;7490;63.708;20.368;2023-04-25T02:43:52;4.40;72.40
14798;DHT22;7490;63.708;20.368;2023-04-25T02:46:18;4.40;72.50
14798;DHT22;7490;63.708;20.368;2023-04-25T02:48:43;4.40;72.60
14798;DHT22;7490;63.708;20.368;2023-04-25T02:51:09;4.40;72.60
14798;DHT22;7490;63.708;20.368;2023-04-25T02:53:35;4.60;72.90
14798;DHT22;7490;63.708;20.368;2023-04-25T02:56:01;4.40;72.80
14798;DHT22;7490;63.708;20.368;2023-04-25T02:58:27;4.40;72.90
14798;DHT22;7490;63.708;20.368;2023-04-25T03:00:52;4.40;73.00
14798;DHT22;7490;63.708;20.368;2023-04-25T03:03:18;4.40;73.10
14798;DHT22;7490;63.708;20.368;2023-04-25T03:05:48;4.40;73.10
14798;DHT22;7490;63.708;20.368;2023-04-25T03:08:14;4.40;73.30
14798;DHT22;7490;63.708;20.368;2023-04-25T03:10:39;4.30;73.50
14798;DHT22;7490;63.708;20.368;2023-04-25T03:13:05;4.30;73.50
14798;DHT22;7490;63.708;20.368;2023-04-25T03:15:31;4.30;73.70
14798;DHT22;7490;63.708;20.368;2023-04-25T03:17:56;4.30;73.80
14798;DHT22;7490;63.708;20.368;2023-04-25T03:20:22;4.50;74.10
14798;DHT22;7490;63.708;20.368;2023-04-25T03:22:48;4.30;74.00
14798;DHT22;7490;63.708;20.368;2023-04-25T03:25:13;4.30;74.00
14798;DHT22;7490;63.708;20.368;2023-04-25T03:27:39;4.40;74.20
14798;DHT22;7490;63.708;20.368;2023-04-25T03:30:05;4.40;74.20
14798;DHT22;7490;63.708;20.368;2023-04-25T03:32:32;4.30;74.20
14798;DHT22;7490;63.708;20.368;2023-04-25T03:34:57;4.30;74.30
14798;DHT22;7490;63.708;20.368;2023-04-25T03:37:23;4.30;74.40
14798;DHT22;7490;63.708;20.368;2023-04-25T03:39:48;4.30;74.60
14798;DHT22;7490;63.708;20.368;2023-04-25T03:42:14;4.30;74.70
14798;DHT22;7490;63.708;20.368;2023-04-25T03:44:40;4.30;74.70
14798;DHT22;7490;63.708;20.368;2023-04-25T03:47:05;4.30;74.70
14798;DHT22;7490;63.708;20.368;2023-04-25T03:49:32;4.30;74.80
14798;DHT22;7490;63.708;20.368;2023-04-25T03:51:58;4.30;75.00
14798;DHT22;7490;63.708;20.368;2023-04-25T03:54:23;4.30;75.10
14798;DHT22;7490;63.708;20.368;2023-04-25T03:56:49;4.30;75.20
14798;DHT22;7490;63.708;20.368;2023-04-25T03:59:15;4.30;75.30
14798;DHT22;7490;63.708;20.368;2023-04-25T04:01:40;4.40;75.30
14798;DHT22;7490;63.708;20.368;2023-04-25T04:04:06;4.40;75.30
14798;DHT22;7490;63.708;20.368;2023-04-25T04:06:32;4.40;75.30
14798;DHT22;7490;63.708;20.368;2023-04-25T04:08:57;4.50;75.50
14798;DHT22;7490;63.708;20.368;2023-04-25T04:11:23;4.40;75.40
14798;DHT22;7490;63.708;20.368;2023-04-25T04:13:49;4.50;75.60
14798;DHT22;7490;63.708;20.368;2023-04-25T04:16:15;4.50;75.60
14798;DHT22;7490;63.708;20.368;2023-04-25T04:18:40;4.50;75.60
14798;DHT22;7490;63.708;20.368;2023-04-25T04:21:06;4.50;75.70
14798;DHT22;7490;63.708;20.368;2023-04-25T04:23:32;4.50;75.80
14798;DHT22;7490;63.708;20.368;2023-04-25T04:25:57;4.50;75.80
14798;DHT22;7490;63.708;20.368;2023-04-25T04:28:23;4.80;75.70
14798;DHT22;7490;63.708;20.368;2023-04-25T04:30:49;4.60;75.60
14798;DHT22;7490;63.708;20.368;2023-04-25T04:33:16;4.70;75.50
14798;DHT22;7490;63.708;20.368;2023-04-25T04:35:44;4.70;75.40
14798;DHT22;7490;63.708;20.368;2023-04-25T04:38:10;4.70;75.40
14798;DHT22;7490;63.708;20.368;2023-04-25T04:40:37;5.00;75.50
14798;DHT22;7490;63.708;20.368;2023-04-25T04:43:03;4.80;75.30
14798;DHT22;7490;63.708;20.368;2023-04-25T04:45:28;4.80;75.20
14798;DHT22;7490;63.708;20.368;2023-04-25T04:47:54;4.80;75.10
14798;DHT22;7490;63.708;20.368;2023-04-25T04:50:20;4.80;75.10
14798;DHT22;7490;63.708;20.368;2023-04-25T04:52:46;5.00;75.10
14798;DHT22;7490;63.708;20.368;2023-04-25T04:55:12;4.90;75.10
14798;DHT22;7490;63.708;20.368;2023-04-25T04:57:37;4.90;75.00
14798;DHT22;7490;63.708;20.368;2023-04-25T05:00:05;4.90;75.00
14798;DHT22;7490;63.708;20.368;2023-04-25T05:02:36;4.90;75.00
14798;DHT22;7490;63.708;20.368;2023-04-25T05:05:02;4.90;74.90
14798;DHT22;7490;63.708;20.368;2023-04-25T05:07:28;5.00;74.80
14798;DHT22;7490;63.708;20.368;2023-04-25T05:09:53;4.90;74.60
14798;DHT22;7490;63.708;20.368;2023-04-25T05:12:19;5.00;74.70
14798;DHT22;7490;63.708;20.368;2023-04-25T05:14:44;5.00;74.60
14798;DHT22;7490;63.708;20.368;2023-04-25T05:17:10;5.10;74.50
14798;DHT22;7490;63.708;20.368;2023-04-25T05:19:36;5.10;74.50
14798;DHT22;7490;63.708;20.368;2023-04-25T05:22:02;5.10;74.40
14798;DHT22;7490;63.708;20.368;2023-04-25T05:24:28;5.10;74.40
14798;DHT22;7490;63.708;20.368;2023-04-25T05:26:53;5.20;74.40
14798;DHT22;7490;63.708;20.368;2023-04-25T05:29:19;5.20;74.40
14798;DHT22;7490;63.708;20.368;2023-04-25T05:31:45;5.30;74.30
14798;DHT22;7490;63.708;20.368;2023-04-25T05:34:10;5.30;74.20
14798;DHT22;7490;63.708;20.368;2023-04-25T05:36:36;5.30;74.20
14798;DHT22;7490;63.708;20.368;2023-04-25T05:39:02;5.30;74.00
14798;DHT22;7490;63.708;20.368;2023-04-25T05:41:29;5.30;73.80
14798;DHT22;7490;63.708;20.368;2023-04-25T05:43:55;5.30;73.80
14798;DHT22;7490;63.708;20.368;2023-04-25T05:46:21;5.40;73.80
14798;DHT22;7490;63.708;20.368;2023-04-25T05:48:46;5.40;73.70
14798;DHT22;7490;63.708;20.368;2023-04-25T05:51:12;5.40;73.40
14798;DHT22;7490;63.708;20.368;2023-04-25T05:53:37;5.40;73.40
14798;DHT22;7490;63.708;20.368;2023-04-25T05:56:03;5.60;73.60
14798;DHT22;7490;63.708;20.368;2023-04-25T05:58:29;5.40;73.60
14798;DHT22;7490;63.708;20.368;2023-04-25T06:00:55;5.40;73.70
14798;DHT22;7490;63.708;20.368;2023-04-25T06:03:21;5.40;73.80
14798;DHT22;7490;63.708;20.368;2023-04-25T06:05:47;5.30;73.80
14798;DHT22;7490;63.708;20.368;2023-04-25T06:08:12;5.40;73.90
14798;DHT22;7490;63.708;20.368;2023-04-25T06:10:38;5.40;73.60
14798;DHT22;7490;63.708;20.368;2023-04-25T06:13:04;5.40;73.60
14798;DHT22;7490;63.708;20.368;2023-04-25T06:15:31;5.40;73.70
14798;DHT22;7490;63.708;20.368;2023-04-25T06:17:59;5.40;73.80
14798;DHT22;7490;63.708;20.368;2023-04-25T06:20:24;5.30;73.90
14798;DHT22;7490;63.708;20.368;2023-04-25T06:22:51;5.30;73.90
14798;DHT22;7490;63.708;20.368;2023-04-25T06:25:17;5.30;74.10
14798;DHT22;7490;63.708;20.368;2023-04-25T06:27:42;5.30;74.10
14798;DHT22;7490;63.708;20.368;2023-04-25T06:30:09;5.30;74.20
14798;DHT22;7490;63.708;20.368;2023-04-25T06:32:35;5.20;74.10
14798;DHT22;7490;63.708;20.368;2023-04-25T06:35:00;5.20;74.30
14798;DHT22;7490;63.708;20.368;2023-04-25T06:37:26;5.30;74.30
14798;DHT22;7490;63.708;20.368;2023-04-25T06:39:52;5.30;74.30
14798;DHT22;7490;63.708;20.368;2023-04-25T06:42:18;5.50;74.50
14798;DHT22;7490;63.708;20.368;2023-04-25T06:44:43;5.30;74.40
14798;DHT22;7490;63.708;20.368;2023-04-25T06:47:09;5.30;74.40
14798;DHT22;7490;63.708;20.368;2023-04-25T06:49:35;5.40;74.50
14798;DHT22;7490;63.708;20.368;2023-04-25T06:52:01;5.40;74.50
14798;DHT22;7490;63.708;20.368;2023-04-25T06:54:26;5.50;74.60
14798;DHT22;7490;63.708;20.368;2023-04-25T06:56:55;5.50;74.40
14798;DHT22;7490;63.708;20.368;2023-04-25T06:59:21;5.50;74.30
14798;DHT22;7490;63.708;20.368;2023-04-25T07:01:46;5.50;74.20
14798;DHT22;7490;63.708;20.368;2023-04-25T07:04:12;5.60;74.20
14798;DHT22;7490;63.708;20.368;2023-04-25T07:06:38;5.60;74.10
14798;DHT22;7490;63.708;20.368;2023-04-25T07:09:08;5.50;74.00
14798;DHT22;7490;63.708;20.368;2023-04-25T07:11:35;5.50;74.20
14798;DHT22;7490;63.708;20.368;2023-04-25T07:14:01;5.60;74.30
14798;DHT22;7490;63.708;20.368;2023-04-25T07:16:27;5.50;74.00
14798;DHT22;7490;63.708;20.368;2023-04-25T07:18:53;5.60;74.20
14798;DHT22;7490;63.708;20.368;2023-04-25T07:21:18;5.60;74.20
14798;DHT22;7490;63.708;20.368;2023-04-25T07:23:44;5.60;74.00
14798;DHT22;7490;63.708;20.368;2023-04-25T07:26:10;5.50;74.00
14798;DHT22;7490;63.708;20.368;2023-04-25T07:28:35;5.50;73.90
14798;DHT22;7490;63.708;20.368;2023-04-25T07:31:01;5.50;74.00
14798;DHT22;7490;63.708;20.368;2023-04-25T07:33:28;5.60;74.00
14798;DHT22;7490;63.708;20.368;2023-04-25T07:35:54;5.60;73.90
14798;DHT22;7490;63.708;20.368;2023-04-25T07:38:21;5.30;73.80
14798;DHT22;7490;63.708;20.368;2023-04-25T07:40:48;5.60;73.80
14798;DHT22;7490;63.708;20.368;2023-04-25T07:43:13;5.60;73.70
14798;DHT22;7490;63.708;20.368;2023-04-25T07:45:42;5.50;73.50
14798;DHT22;7490;63.708;20.368;2023-04-25T07:48:08;5.50;73.70
14798;DHT22;7490;63.708;20.368;2023-04-25T07:50:34;5.40;73.60
14798;DHT22;7490;63.708;20.368;2023-04-25T07:52:59;5.30;73.80
14798;DHT22;7490;63.708;20.368;2023-04-25T07:55:25;5.20;73.80
14798;DHT22;7490;63.708;20.368;2023-04-25T07:57:51;5.20;74.10
14798;DHT22;7490;63.708;20.368;2023-04-25T08:00:17;5.10;74.10
14798;DHT22;7490;63.708;20.368;2023-04-25T08:02:43;5.10;74.30
14798;DHT22;7490;63.708;20.368;2023-04-25T08:05:09;5.10;74.40
14798;DHT22;7490;63.708;20.368;2023-04-25T08:07:37;5.10;74.50
14798;DHT22;7490;63.708;20.368;2023-04-25T08:10:05;5.10;74.70
14798;DHT22;7490;63.708;20.368;2023-04-25T08:12:31;5.10;74.60
14798;DHT22;7490;63.708;20.368;2023-04-25T08:14:56;5.20;74.60
14798;DHT22;7490;63.708;20.368;2023-04-25T08:17:22;5.20;74.60
14798;DHT22;7490;63.708;20.368;2023-04-25T08:19:48;5.20;74.80
14798;DHT22;7490;63.708;20.368;2023-04-25T08:22:14;5.30;74.70
14798;DHT22;7490;63.708;20.368;2023-04-25T08:24:40;5.30;74.70
14798;DHT22;7490;63.708;20.368;2023-04-25T08:27:05;5.30;74.60
14798;DHT22;7490;63.708;20.368;2023-04-25T08:29:33;5.40;74.50
14798;DHT22;7490;63.708;20.368;2023-04-25T08:31:59;5.40;74.60
14798;DHT22;7490;63.708;20.368;2023-04-25T08:34:24;5.40;74.30
14798;DHT22;7490;63.708;20.368;2023-04-25T08:36:51;5.40;74.20
14798;DHT22;7490;63.708;20.368;2023-04-25T08:39:17;5.40;74.10
14798;DHT22;7490;63.708;20.368;2023-04-25T08:41:43;5.40;74.10
14798;DHT22;7490;63.708;20.368;2023-04-25T08:44:13;5.30;74.20
14798;DHT22;7490;63.708;20.368;2023-04-25T08:46:40;5.50;74.60
14798;DHT22;7490;63.708;20.368;2023-04-25T08:49:07;5.30;74.50
14798;DHT22;7490;63.708;20.368;2023-04-25T08:51:33;5.30;74.60
14798;DHT22;7490;63.708;20.368;2023-04-25T08:54:12;5.30;74.50
14798;DHT22;7490;63.708;20.368;2023-04-25T08:56:44;5.30;74.50
14798;DHT22;7490;63.708;20.368;2023-04-25T08:59:11;5.30;74.40
14798;DHT22;7490;63.708;20.368;2023-04-25T09:01:37;5.30;74.40
14798;DHT22;7490;63.708;20.368;2023-04-25T09:04:03;5.20;74.40
14798;DHT22;7490;63.708;20.368;2023-04-25T09:06:29;5.20;74.50
14798;DHT22;7490;63.708;20.368;2023-04-25T09:09:06;5.10;74.50
14798;DHT22;7490;63.708;20.368;2023-04-25T09:11:33;5.10;74.90
14798;DHT22;7490;63.708;20.368;2023-04-25T09:14:16;5.10;74.80
14798;DHT22;7490;63.708;20.368;2023-04-25T09:19:26;5.00;75.10
14798;DHT22;7490;63.708;20.368;2023-04-25T09:22:00;4.90;75.10
14798;DHT22;7490;63.708;20.368;2023-04-25T09:24:39;4.80;75.50
14798;DHT22;7490;63.708;20.368;2023-04-25T09:27:18;4.80;75.70
14798;DHT22;7490;63.708;20.368;2023-04-25T09:29:43;4.80;75.70
14798;DHT22;7490;63.708;20.368;2023-04-25T09:32:19;4.70;76.00
14798;DHT22;7490;63.708;20.368;2023-04-25T09:34:48;4.60;76.30
14798;DHT22;7490;63.708;20.368;2023-04-25T09:37:32;4.70;76.70
14798;DHT22;7490;63.708;20.368;2023-04-25T09:40:00;4.40;76.90
14798;DHT22;7490;63.708;20.368;2023-04-25T09:42:29;4.40;77.10
14798;DHT22;7490;63.708;20.368;2023-04-25T09:44:58;4.30;77.40
14798;DHT22;7490;63.708;20.368;2023-04-25T09:47:25;4.50;77.80
14798;DHT22;7490;63.708;20.368;2023-04-25T09:49:53;4.20;77.90
14798;DHT22;7490;63.708;20.368;2023-04-25T09:52:23;4.20;78.20
14798;DHT22;7490;63.708;20.368;2023-04-25T09:54:50;4.30;79.10
14798;DHT22;7490;63.708;20.368;2023-04-25T09:57:20;4.20;78.10
14798;DHT22;7490;63.708;20.368;2023-04-25T09:59:51;4.30;78.30
14798;DHT22;7490;63.708;20.368;2023-04-25T10:02:22;4.20;78.50
14798;DHT22;7490;63.708;20.368;2023-04-25T10:04:53;4.20;78.80
14798;DHT22;7490;63.708;20.368;2023-04-25T10:07:24;4.20;78.90
14798;DHT22;7490;63.708;20.368;2023-04-25T10:09:59;4.20;79.00
14798;DHT22;7490;63.708;20.368;2023-04-25T10:12:26;4.20;79.10
14798;DHT22;7490;63.708;20.368;2023-04-25T10:14:52;4.20;79.10
14798;DHT22;7490;63.708;20.368;2023-04-25T10:17:20;4.20;79.10
14798;DHT22;7490;63.708;20.368;2023-04-25T10:19:49;4.10;79.20
14798;DHT22;7490;63.708;20.368;2023-04-25T10:25:01;4.10;79.60
14798;DHT22;7490;63.708;20.368;2023-04-25T10:27:30;4.00;79.60
14798;DHT22;7490;63.708;20.368;2023-04-25T10:30:05;4.00;79.90
14798;DHT22;7490;63.708;20.368;2023-04-25T10:32:35;4.00;80.10
14798;DHT22;7490;63.708;20.368;2023-04-25T10:35:30;4.00;79.90
14798;DHT22;7490;63.708;20.368;2023-04-25T10:38:14;4.00;80.20
14798;DHT22;7490;63.708;20.368;2023-04-25T10:40:40;4.10;80.50
14798;DHT22;7490;63.708;20.368;2023-04-25T10:45:56;3.90;80.60
14798;DHT22;7490;63.708;20.368;2023-04-25T10:48:26;3.90;80.60
14798;DHT22;7490;63.708;20.368;2023-04-25T10:51:07;3.90;80.80
14798;DHT22;7490;63.708;20.368;2023-04-25T10:53:33;3.90;81.10
14798;DHT22;7490;63.708;20.368;2023-04-25T10:55:59;4.00;81.20
14798;DHT22;7490;63.708;20.368;2023-04-25T10:58:26;4.00;81.10
14798;DHT22;7490;63.708;20.368;2023-04-25T11:00:52;4.10;81.20
14798;DHT22;7490;63.708;20.368;2023-04-25T11:03:21;4.10;81.30
14798;DHT22;7490;63.708;20.368;2023-04-25T11:05:48;4.10;81.30
14798;DHT22;7490;63.708;20.368;2023-04-25T11:08:21;4.10;81.40
14798;DHT22;7490;63.708;20.368;2023-04-25T11:10:52;4.10;81.40
14798;DHT22;7490;63.708;20.368;2023-04-25T11:13:20;4.10;81.30
14798;DHT22;7490;63.708;20.368;2023-04-25T11:15:51;4.10;81.30
14798;DHT22;7490;63.708;20.368;2023-04-25T11:18:17;4.10;81.30
14798;DHT22;7490;63.708;20.368;2023-04-25T11:20:43;4.00;81.30
14798;DHT22;7490;63.708;20.368;2023-04-25T11:23:10;4.00;81.30
14798;DHT22;7490;63.708;20.368;2023-04-25T11:25:36;4.00;81.30
14798;DHT22;7490;63.708;20.368;2023-04-25T11:28:02;3.90;81.40
14798;DHT22;7490;63.708;20.368;2023-04-25T11:30:28;3.90;81.60
14798;DHT22;7490;63.708;20.368;2023-04-25T11:32:56;3.80;81.70
14798;DHT22;7490;63.708;20.368;2023-04-25T11:35:22;3.80;82.00
14798;DHT22;7490;63.708;20.368;2023-04-25T11:37:48;3.80;82.20
14798;DHT22;7490;63.708;20.368;2023-04-25T11:40:15;3.80;82.30
14798;DHT22;7490;63.708;20.368;2023-04-25T11:42:45;3.80;82.50
14798;DHT22;7490;63.708;20.368;2023-04-25T11:45:12;3.80;82.80
14798;DHT22;7490;63.708;20.368;2023-04-25T11:47:38;3.50;82.50
14798;DHT22;7490;63.708;20.368;2023-04-25T11:50:06;3.70;82.80
14798;DHT22;7490;63.708;20.368;2023-04-25T11:52:47;3.70;83.00
14798;DHT22;7490;63.708;20.368;2023-04-25T11:55:15;3.60;83.10
14798;DHT22;7490;63.708;20.368;2023-04-25T11:57:41;3.80;83.20
14798;DHT22;7490;63.708;20.368;2023-04-25T12:00:12;3.80;83.40
14798;DHT22;7490;63.708;20.368;2023-04-25T12:02:43;3.50;83.50
14798;DHT22;7490;63.708;20.368;2023-04-25T12:05:10;3.50;83.70
14798;DHT22;7490;63.708;20.368;2023-04-25T12:07:36;3.50;84.00
14798;DHT22;7490;63.708;20.368;2023-04-25T12:10:07;3.50;84.30
14798;DHT22;7490;63.708;20.368;2023-04-25T12:12:34;3.50;84.60
14798;DHT22;7490;63.708;20.368;2023-04-25T12:15:25;3.60;84.70
14798;DHT22;7490;63.708;20.368;2023-04-25T12:17:53;3.60;84.90
14798;DHT22;7490;63.708;20.368;2023-04-25T12:20:23;3.70;84.90
14798;DHT22;7490;63.708;20.368;2023-04-25T12:22:50;3.70;84.90
14798;DHT22;7490;63.708;20.368;2023-04-25T12:25:35;3.70;84.80
14798;DHT22;7490;63.708;20.368;2023-04-25T12:28:15;3.70;84.90
14798;DHT22;7490;63.708;20.368;2023-04-25T12:33:28;3.70;84.90
14798;DHT22;7490;63.708;20.368;2023-04-25T12:35:54;3.70;84.80
14798;DHT22;7490;63.708;20.368;2023-04-25T12:38:36;3.80;84.80
14798;DHT22;7490;63.708;20.368;2023-04-25T12:41:03;3.90;85.10
14798;DHT22;7490;63.708;20.368;2023-04-25T12:43:28;3.80;85.10
14798;DHT22;7490;63.708;20.368;2023-04-25T12:45:55;3.80;85.90
14798;DHT22;7490;63.708;20.368;2023-04-25T12:48:21;3.90;85.20
14798;DHT22;7490;63.708;20.368;2023-04-25T12:50:48;4.00;85.20
14798;DHT22;7490;63.708;20.368;2023-04-25T12:53:15;4.00;85.10
14798;DHT22;7490;63.708;20.368;2023-04-25T12:55:41;4.00;85.80
14798;DHT22;7490;63.708;20.368;2023-04-25T12:58:07;4.00;84.90
14798;DHT22;7490;63.708;20.368;2023-04-25T13:00:33;4.00;84.90
14798;DHT22;7490;63.708;20.368;2023-04-25T13:02:59;4.00;84.80
14798;DHT22;7490;63.708;20.368;2023-04-25T13:05:25;4.00;84.80
14798;DHT22;7490;63.708;20.368;2023-04-25T13:07:51;4.00;84.80
14798;DHT22;7490;63.708;20.368;2023-04-25T13:10:17;3.90;84.90
14798;DHT22;7490;63.708;20.368;2023-04-25T13:12:43;3.90;85.00
14798;DHT22;7490;63.708;20.368;2023-04-25T13:15:09;3.90;85.00
14798;DHT22;7490;63.708;20.368;2023-04-25T13:17:39;3.90;85.10
14798;DHT22;7490;63.708;20.368;2023-04-25T13:20:06;3.90;85.10
14798;DHT22;7490;63.708;20.368;2023-04-25T13:22:34;3.90;85.10
14798;DHT22;7490;63.708;20.368;2023-04-25T13:25:02;3.90;85.20
14798;DHT22;7490;63.708;20.368;2023-04-25T13:27:28;3.90;85.20
14798;DHT22;7490;63.708;20.368;2023-04-25T13:29:54;3.90;85.30
14798;DHT22;7490;63.708;20.368;2023-04-25T13:32:20;3.90;85.30
14798;DHT22;7490;63.708;20.368;2023-04-25T13:34:45;3.90;85.30
14798;DHT22;7490;63.708;20.368;2023-04-25T13:37:11;3.90;85.40
14798;DHT22;7490;63.708;20.368;2023-04-25T13:39:37;3.90;85.50
14798;DHT22;7490;63.708;20.368;2023-04-25T13:42:02;3.90;85.70
14798;DHT22;7490;63.708;20.368;2023-04-25T13:44:28;3.80;85.80
14798;DHT22;7490;63.708;20.368;2023-04-25T13:46:54;3.80;85.90
14798;DHT22;7490;63.708;20.368;2023-04-25T13:49:20;3.80;86.10
14798;DHT22;7490;63.708;20.368;2023-04-25T13:51:45;3.70;86.20
14798;DHT22;7490;63.708;20.368;2023-04-25T13:54:11;3.70;86.60
14798;DHT22;7490;63.708;20.368;2023-04-25T13:56:37;3.70;86.70
14798;DHT22;7490;63.708;20.368;2023-04-25T13:59:02;3.70;86.80
14798;DHT22;7490;63.708;20.368;2023-04-25T14:01:28;3.70;86.90
14798;DHT22;7490;63.708;20.368;2023-04-25T14:03:56;3.70;87.00
14798;DHT22;7490;63.708;20.368;2023-04-25T14:06:22;3.70;87.10
14798;DHT22;7490;63.708;20.368;2023-04-25T14:08:50;3.70;87.30
14798;DHT22;7490;63.708;20.368;2023-04-25T14:11:15;3.60;87.50
14798;DHT22;7490;63.708;20.368;2023-04-25T14:13:43;3.60;87.60
14798;DHT22;7490;63.708;20.368;2023-04-25T14:16:09;3.60;87.70
14798;DHT22;7490;63.708;20.368;2023-04-25T14:18:35;3.60;87.80
14798;DHT22;7490;63.708;20.368;2023-04-25T14:21:01;3.60;88.00
14798;DHT22;7490;63.708;20.368;2023-04-25T14:23:26;3.70;88.30
14798;DHT22;7490;63.708;20.368;2023-04-25T14:25:53;3.60;88.40
14798;DHT22;7490;63.708;20.368;2023-04-25T14:28:19;3.60;88.60
14798;DHT22;7490;63.708;20.368;2023-04-25T14:30:45;3.70;88.80
14798;DHT22;7490;63.708;20.368;2023-04-25T14:33:11;3.70;89.10
14798;DHT22;7490;63.708;20.368;2023-04-25T14:35:37;3.70;89.20
14798;DHT22;7490;63.708;20.368;2023-04-25T14:38:03;3.60;90.00
14798;DHT22;7490;63.708;20.368;2023-04-25T14:40:28;3.60;89.50
14798;DHT22;7490;63.708;20.368;2023-04-25T14:42:54;3.60;89.80
14798;DHT22;7490;63.708;20.368;2023-04-25T14:45:20;3.60;89.80
14798;DHT22;7490;63.708;20.368;2023-04-25T14:47:46;3.60;89.90
14798;DHT22;7490;63.708;20.368;2023-04-25T14:50:12;3.60;89.90
14798;DHT22;7490;63.708;20.368;2023-04-25T14:52:37;3.60;90.00
14798;DHT22;7490;63.708;20.368;2023-04-25T14:55:04;3.70;90.10
14798;DHT22;7490;63.708;20.368;2023-04-25T14:57:34;3.70;90.10
14798;DHT22;7490;63.708;20.368;2023-04-25T15:00:00;3.70;90.20
14798;DHT22;7490;63.708;20.368;2023-04-25T15:02:26;3.80;90.20
14798;DHT22;7490;63.708;20.368;2023-04-25T15:04:53;3.80;90.20
14798;DHT22;7490;63.708;20.368;2023-04-25T15:07:19;3.80;90.20
14798;DHT22;7490;63.708;20.368;2023-04-25T15:09:47;3.80;90.10
14798;DHT22;7490;63.708;20.368;2023-04-25T15:12:13;3.80;90.20
14798;DHT22;7490;63.708;20.368;2023-04-25T15:14:39;3.90;90.20
14798;DHT22;7490;63.708;20.368;2023-04-25T15:17:05;3.90;90.20
14798;DHT22;7490;63.708;20.368;2023-04-25T15:19:31;3.90;90.20
14798;DHT22;7490;63.708;20.368;2023-04-25T15:21:57;3.90;90.30
14798;DHT22;7490;63.708;20.368;2023-04-25T15:24:25;3.90;90.30
14798;DHT22;7490;63.708;20.368;2023-04-25T15:26:51;4.00;90.30
14798;DHT22;7490;63.708;20.368;2023-04-25T15:29:17;4.10;90.40
14798;DHT22;7490;63.708;20.368;2023-04-25T15:31:43;4.10;90.40
14798;DHT22;7490;63.708;20.368;2023-04-25T15:34:09;4.20;90.40
14798;DHT22;7490;63.708;20.368;2023-04-25T15:36:35;4.10;90.30
14798;DHT22;7490;63.708;20.368;2023-04-25T15:39:00;4.10;90.40
14798;DHT22;7490;63.708;20.368;2023-04-25T15:41:28;4.10;90.30
14798;DHT22;7490;63.708;20.368;2023-04-25T15:43:54;4.30;90.40
14798;DHT22;7490;63.708;20.368;2023-04-25T15:46:20;4.10;90.40
14798;DHT22;7490;63.708;20.368;2023-04-25T15:48:47;4.10;90.40
14798;DHT22;7490;63.708;20.368;2023-04-25T15:51:13;4.10;90.40
14798;DHT22;7490;63.708;20.368;2023-04-25T15:53:39;4.10;90.40